sensor_id;sensor_type;location;lat;lon;timestamp;P1;durP1;ratioP1;P2;durP2;ratioP2
57945;SDS011;46070;42.672;23.328;2022-07-09T00:00:27;4.72;;;3.85;;
57945;SDS011;46070;42.672;23.328;2022-07-09T00:02:53;6.25;;;4.00;;
57945;SDS011;46070;42.672;23.328;2022-07-09T00:05:19;6.80;;;3.72;;
57945;SDS011;46070;42.672;23.328;2022-07-09T00:07:44;5.90;;;3.40;;
57945;SDS011;46070;42.672;23.328;2022-07-09T00:10:10;6.10;;;3.20;;
57945;SDS011;46070;42.672;23.328;2022-07-09T00:12:36;4.53;;;3.38;;
57945;SDS011;46070;42.672;23.328;2022-07-09T00:15:02;9.20;;;3.58;;
57945;SDS011;46070;42.672;23.328;2022-07-09T00:17:28;3.88;;;3.33;;
57945;SDS011;46070;42.672;23.328;2022-07-09T00:19:57;4.85;;;3.25;;
57945;SDS011;46070;42.672;23.328;2022-07-09T00:22:22;3.97;;;3.55;;
57945;SDS011;46070;42.672;23.328;2022-07-09T00:24:48;4.90;;;2.97;;
57945;SDS011;46070;42.672;23.328;2022-07-09T00:27:14;3.75;;;3.03;;
57945;SDS011;46070;42.672;23.328;2022-07-09T00:29:40;4.43;;;3.53;;
57945;SDS011;46070;42.672;23.328;2022-07-09T00:32:06;4.88;;;2.92;;
57945;SDS011;46070;42.672;23.328;2022-07-09T00:34:32;5.43;;;4.88;;
57945;SDS011;46070;42.672;23.328;2022-07-09T00:36:58;6.72;;;5.57;;
57945;SDS011;46070;42.672;23.328;2022-07-09T00:39:25;7.65;;;5.25;;
57945;SDS011;46070;42.672;23.328;2022-07-09T00:42:00;5.03;;;4.45;;
57945;SDS011;46070;42.672;23.328;2022-07-09T00:44:27;8.95;;;4.10;;
57945;SDS011;46070;42.672;23.328;2022-07-09T00:46:53;3.63;;;3.08;;
57945;SDS011;46070;42.672;23.328;2022-07-09T00:49:18;7.07;;;3.42;;
57945;SDS011;46070;42.672;23.328;2022-07-09T00:51:44;3.20;;;2.30;;
57945;SDS011;46070;42.672;23.328;2022-07-09T00:54:10;2.83;;;2.22;;
57945;SDS011;46070;42.672;23.328;2022-07-09T00:56:36;2.78;;;2.33;;
57945;SDS011;46070;42.672;23.328;2022-07-09T00:59:02;4.13;;;2.53;;
57945;SDS011;46070;42.672;23.328;2022-07-09T01:01:32;3.17;;;2.40;;
57945;SDS011;46070;42.672;23.328;2022-07-09T01:03:59;2.92;;;2.53;;
57945;SDS011;46070;42.672;23.328;2022-07-09T01:06:26;3.63;;;1.95;;
57945;SDS011;46070;42.672;23.328;2022-07-09T01:08:52;7.32;;;2.50;;
57945;SDS011;46070;42.672;23.328;2022-07-09T01:11:17;6.47;;;2.47;;
57945;SDS011;46070;42.672;23.328;2022-07-09T01:13:43;2.35;;;2.08;;
57945;SDS011;46070;42.672;23.328;2022-07-09T01:16:15;3.33;;;2.15;;
57945;SDS011;46070;42.672;23.328;2022-07-09T01:18:44;2.53;;;1.90;;
57945;SDS011;46070;42.672;23.328;2022-07-09T01:21:12;2.88;;;2.38;;
57945;SDS011;46070;42.672;23.328;2022-07-09T01:23:38;3.25;;;2.15;;
57945;SDS011;46070;42.672;23.328;2022-07-09T01:26:04;2.40;;;2.13;;
57945;SDS011;46070;42.672;23.328;2022-07-09T01:28:31;4.90;;;1.77;;
57945;SDS011;46070;42.672;23.328;2022-07-09T01:30:56;2.25;;;1.90;;
57945;SDS011;46070;42.672;23.328;2022-07-09T01:33:22;4.03;;;2.40;;
57945;SDS011;46070;42.672;23.328;2022-07-09T01:35:48;2.60;;;2.38;;
57945;SDS011;46070;42.672;23.328;2022-07-09T01:38:13;2.20;;;1.63;;
57945;SDS011;46070;42.672;23.328;2022-07-09T01:40:40;3.33;;;1.75;;
57945;SDS011;46070;42.672;23.328;2022-07-09T01:43:05;2.78;;;2.05;;
57945;SDS011;46070;42.672;23.328;2022-07-09T01:45:31;1.63;;;1.52;;
57945;SDS011;46070;42.672;23.328;2022-07-09T01:47:57;3.75;;;1.73;;
57945;SDS011;46070;42.672;23.328;2022-07-09T01:50:23;2.72;;;2.00;;
57945;SDS011;46070;42.672;23.328;2022-07-09T01:52:49;3.08;;;1.83;;
57945;SDS011;46070;42.672;23.328;2022-07-09T01:55:15;2.08;;;1.88;;
57945;SDS011;46070;42.672;23.328;2022-07-09T01:57:41;1.85;;;1.70;;
57945;SDS011;46070;42.672;23.328;2022-07-09T02:00:07;2.05;;;1.77;;
57945;SDS011;46070;42.672;23.328;2022-07-09T02:02:33;2.00;;;1.80;;
57945;SDS011;46070;42.672;23.328;2022-07-09T02:04:59;2.92;;;1.73;;
57945;SDS011;46070;42.672;23.328;2022-07-09T02:07:25;2.80;;;1.70;;
57945;SDS011;46070;42.672;23.328;2022-07-09T02:09:50;2.03;;;1.83;;
57945;SDS011;46070;42.672;23.328;2022-07-09T02:12:16;3.67;;;1.88;;
57945;SDS011;46070;42.672;23.328;2022-07-09T02:14:42;3.83;;;1.90;;
57945;SDS011;46070;42.672;23.328;2022-07-09T02:17:08;1.92;;;1.70;;
57945;SDS011;46070;42.672;23.328;2022-07-09T02:19:34;4.95;;;1.55;;
57945;SDS011;46070;42.672;23.328;2022-07-09T02:21:59;5.15;;;1.92;;
57945;SDS011;46070;42.672;23.328;2022-07-09T02:24:25;1.65;;;1.50;;
57945;SDS011;46070;42.672;23.328;2022-07-09T02:26:51;2.05;;;1.75;;
57945;SDS011;46070;42.672;23.328;2022-07-09T02:29:17;3.83;;;1.65;;
57945;SDS011;46070;42.672;23.328;2022-07-09T02:31:42;2.53;;;1.88;;
57945;SDS011;46070;42.672;23.328;2022-07-09T02:34:08;2.50;;;1.70;;
57945;SDS011;46070;42.672;23.328;2022-07-09T02:36:34;5.22;;;1.85;;
57945;SDS011;46070;42.672;23.328;2022-07-09T02:38:59;3.00;;;1.60;;
57945;SDS011;46070;42.672;23.328;2022-07-09T02:41:25;3.40;;;1.70;;
57945;SDS011;46070;42.672;23.328;2022-07-09T02:43:51;3.85;;;2.05;;
57945;SDS011;46070;42.672;23.328;2022-07-09T02:46:17;2.30;;;1.88;;
57945;SDS011;46070;42.672;23.328;2022-07-09T02:48:43;2.58;;;1.70;;
57945;SDS011;46070;42.672;23.328;2022-07-09T02:51:08;2.53;;;1.60;;
57945;SDS011;46070;42.672;23.328;2022-07-09T02:53:34;1.83;;;1.73;;
57945;SDS011;46070;42.672;23.328;2022-07-09T02:55:59;2.28;;;1.77;;
57945;SDS011;46070;42.672;23.328;2022-07-09T02:58:25;2.92;;;1.80;;
57945;SDS011;46070;42.672;23.328;2022-07-09T03:00:51;3.83;;;1.55;;
57945;SDS011;46070;42.672;23.328;2022-07-09T03:03:17;3.08;;;1.80;;
57945;SDS011;46070;42.672;23.328;2022-07-09T03:05:42;4.15;;;1.55;;
57945;SDS011;46070;42.672;23.328;2022-07-09T03:08:08;3.10;;;1.92;;
57945;SDS011;46070;42.672;23.328;2022-07-09T03:10:34;3.30;;;2.00;;
57945;SDS011;46070;42.672;23.328;2022-07-09T03:13:00;1.73;;;1.60;;
57945;SDS011;46070;42.672;23.328;2022-07-09T03:15:26;3.00;;;2.00;;
57945;SDS011;46070;42.672;23.328;2022-07-09T03:17:52;2.28;;;2.05;;
57945;SDS011;46070;42.672;23.328;2022-07-09T03:20:18;5.35;;;1.63;;
57945;SDS011;46070;42.672;23.328;2022-07-09T03:22:43;2.10;;;1.90;;
57945;SDS011;46070;42.672;23.328;2022-07-09T03:25:09;1.98;;;1.73;;
57945;SDS011;46070;42.672;23.328;2022-07-09T03:27:35;2.97;;;1.92;;
57945;SDS011;46070;42.672;23.328;2022-07-09T03:30:01;6.43;;;1.92;;
57945;SDS011;46070;42.672;23.328;2022-07-09T03:32:27;1.92;;;1.83;;
57945;SDS011;46070;42.672;23.328;2022-07-09T03:34:53;2.30;;;1.70;;
57945;SDS011;46070;42.672;23.328;2022-07-09T03:37:19;1.85;;;1.67;;
57945;SDS011;46070;42.672;23.328;2022-07-09T03:39:45;2.03;;;1.55;;
57945;SDS011;46070;42.672;23.328;2022-07-09T03:42:11;3.35;;;2.40;;
57945;SDS011;46070;42.672;23.328;2022-07-09T03:44:38;4.05;;;2.03;;
57945;SDS011;46070;42.672;23.328;2022-07-09T03:47:03;5.15;;;1.77;;
57945;SDS011;46070;42.672;23.328;2022-07-09T03:49:30;3.15;;;2.08;;
57945;SDS011;46070;42.672;23.328;2022-07-09T03:51:56;2.28;;;1.92;;
57945;SDS011;46070;42.672;23.328;2022-07-09T03:54:22;2.75;;;2.10;;
57945;SDS011;46070;42.672;23.328;2022-07-09T03:56:48;2.13;;;1.92;;
57945;SDS011;46070;42.672;23.328;2022-07-09T03:59:15;1.75;;;1.50;;
57945;SDS011;46070;42.672;23.328;2022-07-09T04:01:41;4.93;;;2.00;;
57945;SDS011;46070;42.672;23.328;2022-07-09T04:04:07;4.00;;;2.20;;
57945;SDS011;46070;42.672;23.328;2022-07-09T04:06:32;2.03;;;1.83;;
57945;SDS011;46070;42.672;23.328;2022-07-09T04:08:58;2.17;;;1.90;;
57945;SDS011;46070;42.672;23.328;2022-07-09T04:11:29;2.08;;;1.88;;
57945;SDS011;46070;42.672;23.328;2022-07-09T04:13:59;2.65;;;2.45;;
57945;SDS011;46070;42.672;23.328;2022-07-09T04:16:25;4.05;;;2.03;;
57945;SDS011;46070;42.672;23.328;2022-07-09T04:18:52;2.60;;;1.90;;
57945;SDS011;46070;42.672;23.328;2022-07-09T04:21:18;2.42;;;1.70;;
57945;SDS011;46070;42.672;23.328;2022-07-09T04:23:46;2.92;;;1.83;;
57945;SDS011;46070;42.672;23.328;2022-07-09T04:26:13;4.20;;;2.20;;
57945;SDS011;46070;42.672;23.328;2022-07-09T04:28:38;4.40;;;2.10;;
57945;SDS011;46070;42.672;23.328;2022-07-09T04:31:04;2.47;;;1.65;;
57945;SDS011;46070;42.672;23.328;2022-07-09T04:33:30;3.58;;;1.90;;
57945;SDS011;46070;42.672;23.328;2022-07-09T04:35:56;4.72;;;2.20;;
57945;SDS011;46070;42.672;23.328;2022-07-09T04:38:22;4.47;;;1.85;;
57945;SDS011;46070;42.672;23.328;2022-07-09T04:40:48;4.35;;;1.85;;
57945;SDS011;46070;42.672;23.328;2022-07-09T04:43:13;3.40;;;2.17;;
57945;SDS011;46070;42.672;23.328;2022-07-09T04:45:39;3.15;;;2.03;;
57945;SDS011;46070;42.672;23.328;2022-07-09T04:48:05;2.63;;;2.25;;
57945;SDS011;46070;42.672;23.328;2022-07-09T04:50:31;2.95;;;2.05;;
57945;SDS011;46070;42.672;23.328;2022-07-09T04:52:56;2.67;;;1.98;;
57945;SDS011;46070;42.672;23.328;2022-07-09T04:55:22;2.80;;;2.17;;
57945;SDS011;46070;42.672;23.328;2022-07-09T04:57:48;3.88;;;1.98;;
57945;SDS011;46070;42.672;23.328;2022-07-09T05:00:14;6.10;;;2.45;;
57945;SDS011;46070;42.672;23.328;2022-07-09T05:02:41;7.80;;;2.55;;
57945;SDS011;46070;42.672;23.328;2022-07-09T05:05:07;4.45;;;2.60;;
57945;SDS011;46070;42.672;23.328;2022-07-09T05:07:34;2.30;;;2.00;;
57945;SDS011;46070;42.672;23.328;2022-07-09T05:10:01;6.07;;;2.45;;
57945;SDS011;46070;42.672;23.328;2022-07-09T05:12:27;3.42;;;2.60;;
57945;SDS011;46070;42.672;23.328;2022-07-09T05:14:54;8.07;;;2.25;;
57945;SDS011;46070;42.672;23.328;2022-07-09T05:17:21;3.65;;;2.00;;
57945;SDS011;46070;42.672;23.328;2022-07-09T05:19:47;2.40;;;2.10;;
57945;SDS011;46070;42.672;23.328;2022-07-09T05:22:13;5.50;;;2.10;;
57945;SDS011;46070;42.672;23.328;2022-07-09T05:24:39;8.23;;;2.28;;
57945;SDS011;46070;42.672;23.328;2022-07-09T05:27:05;4.20;;;2.28;;
57945;SDS011;46070;42.672;23.328;2022-07-09T05:29:31;2.95;;;2.05;;
57945;SDS011;46070;42.672;23.328;2022-07-09T05:31:57;2.28;;;2.08;;
57945;SDS011;46070;42.672;23.328;2022-07-09T05:34:24;5.03;;;2.00;;
57945;SDS011;46070;42.672;23.328;2022-07-09T05:36:50;4.68;;;2.17;;
57945;SDS011;46070;42.672;23.328;2022-07-09T05:39:20;2.83;;;1.70;;
57945;SDS011;46070;42.672;23.328;2022-07-09T05:41:46;5.45;;;1.85;;
57945;SDS011;46070;42.672;23.328;2022-07-09T05:44:11;4.50;;;1.80;;
57945;SDS011;46070;42.672;23.328;2022-07-09T05:46:37;1.75;;;1.65;;
57945;SDS011;46070;42.672;23.328;2022-07-09T05:49:03;2.88;;;2.20;;
57945;SDS011;46070;42.672;23.328;2022-07-09T05:51:29;4.90;;;2.25;;
57945;SDS011;46070;42.672;23.328;2022-07-09T05:53:55;5.85;;;1.98;;
57945;SDS011;46070;42.672;23.328;2022-07-09T05:56:21;3.38;;;2.20;;
57945;SDS011;46070;42.672;23.328;2022-07-09T05:58:46;5.68;;;2.05;;
57945;SDS011;46070;42.672;23.328;2022-07-09T06:01:13;9.25;;;3.03;;
57945;SDS011;46070;42.672;23.328;2022-07-09T06:03:39;4.35;;;2.33;;
57945;SDS011;46070;42.672;23.328;2022-07-09T06:06:05;2.17;;;1.63;;
57945;SDS011;46070;42.672;23.328;2022-07-09T06:08:31;2.70;;;1.88;;
57945;SDS011;46070;42.672;23.328;2022-07-09T06:10:58;4.80;;;2.53;;
57945;SDS011;46070;42.672;23.328;2022-07-09T06:13:24;2.92;;;2.35;;
57945;SDS011;46070;42.672;23.328;2022-07-09T06:15:51;3.38;;;1.60;;
57945;SDS011;46070;42.672;23.328;2022-07-09T06:18:17;2.70;;;2.20;;
57945;SDS011;46070;42.672;23.328;2022-07-09T06:20:43;2.25;;;2.08;;
57945;SDS011;46070;42.672;23.328;2022-07-09T06:23:09;4.40;;;1.90;;
57945;SDS011;46070;42.672;23.328;2022-07-09T06:25:35;5.07;;;1.90;;
57945;SDS011;46070;42.672;23.328;2022-07-09T06:28:02;2.70;;;1.80;;
57945;SDS011;46070;42.672;23.328;2022-07-09T06:30:28;3.05;;;1.95;;
57945;SDS011;46070;42.672;23.328;2022-07-09T06:32:54;3.95;;;1.80;;
57945;SDS011;46070;42.672;23.328;2022-07-09T06:35:20;3.42;;;1.95;;
57945;SDS011;46070;42.672;23.328;2022-07-09T06:37:46;2.80;;;1.77;;
57945;SDS011;46070;42.672;23.328;2022-07-09T06:40:11;2.08;;;1.70;;
57945;SDS011;46070;42.672;23.328;2022-07-09T06:42:38;3.05;;;1.92;;
57945;SDS011;46070;42.672;23.328;2022-07-09T06:45:04;3.00;;;2.13;;
57945;SDS011;46070;42.672;23.328;2022-07-09T06:47:30;2.60;;;2.20;;
57945;SDS011;46070;42.672;23.328;2022-07-09T06:49:55;4.43;;;2.22;;
57945;SDS011;46070;42.672;23.328;2022-07-09T06:52:21;2.30;;;2.10;;
57945;SDS011;46070;42.672;23.328;2022-07-09T06:54:47;3.08;;;2.50;;
57945;SDS011;46070;42.672;23.328;2022-07-09T06:57:12;3.33;;;2.50;;
57945;SDS011;46070;42.672;23.328;2022-07-09T06:59:40;4.38;;;2.13;;
57945;SDS011;46070;42.672;23.328;2022-07-09T07:02:06;3.17;;;2.05;;
57945;SDS011;46070;42.672;23.328;2022-07-09T07:04:32;4.88;;;1.73;;
57945;SDS011;46070;42.672;23.328;2022-07-09T07:06:58;2.55;;;2.35;;
57945;SDS011;46070;42.672;23.328;2022-07-09T07:09:23;2.75;;;2.33;;
57945;SDS011;46070;42.672;23.328;2022-07-09T07:11:49;3.17;;;2.38;;
57945;SDS011;46070;42.672;23.328;2022-07-09T07:14:15;2.97;;;1.88;;
57945;SDS011;46070;42.672;23.328;2022-07-09T07:16:42;3.00;;;2.70;;
57945;SDS011;46070;42.672;23.328;2022-07-09T07:19:08;3.45;;;2.60;;
57945;SDS011;46070;42.672;23.328;2022-07-09T07:21:35;3.72;;;2.90;;
57945;SDS011;46070;42.672;23.328;2022-07-09T07:24:01;4.88;;;3.60;;
57945;SDS011;46070;42.672;23.328;2022-07-09T07:26:28;6.68;;;3.95;;
57945;SDS011;46070;42.672;23.328;2022-07-09T07:28:53;4.75;;;3.08;;
57945;SDS011;46070;42.672;23.328;2022-07-09T07:31:19;3.33;;;3.00;;
57945;SDS011;46070;42.672;23.328;2022-07-09T07:33:45;4.70;;;2.40;;
57945;SDS011;46070;42.672;23.328;2022-07-09T07:36:10;4.97;;;2.83;;
57945;SDS011;46070;42.672;23.328;2022-07-09T07:38:36;4.50;;;2.72;;
57945;SDS011;46070;42.672;23.328;2022-07-09T07:41:02;4.88;;;2.97;;
57945;SDS011;46070;42.672;23.328;2022-07-09T07:43:28;2.90;;;2.50;;
57945;SDS011;46070;42.672;23.328;2022-07-09T07:45:53;2.90;;;2.40;;
57945;SDS011;46070;42.672;23.328;2022-07-09T07:48:19;3.33;;;2.47;;
57945;SDS011;46070;42.672;23.328;2022-07-09T07:50:45;3.25;;;2.95;;
57945;SDS011;46070;42.672;23.328;2022-07-09T07:53:10;3.15;;;2.45;;
57945;SDS011;46070;42.672;23.328;2022-07-09T07:55:36;3.00;;;2.80;;
57945;SDS011;46070;42.672;23.328;2022-07-09T07:58:02;2.78;;;2.58;;
57945;SDS011;46070;42.672;23.328;2022-07-09T08:00:27;3.08;;;2.55;;
57945;SDS011;46070;42.672;23.328;2022-07-09T08:02:53;2.92;;;2.63;;
57945;SDS011;46070;42.672;23.328;2022-07-09T08:05:19;3.00;;;2.70;;
57945;SDS011;46070;42.672;23.328;2022-07-09T08:07:45;3.65;;;2.70;;
57945;SDS011;46070;42.672;23.328;2022-07-09T08:10:11;3.58;;;2.70;;
57945;SDS011;46070;42.672;23.328;2022-07-09T08:12:37;3.28;;;2.70;;
57945;SDS011;46070;42.672;23.328;2022-07-09T08:15:02;3.00;;;2.55;;
57945;SDS011;46070;42.672;23.328;2022-07-09T08:17:28;6.70;;;2.80;;
57945;SDS011;46070;42.672;23.328;2022-07-09T08:19:54;3.88;;;2.90;;
57945;SDS011;46070;42.672;23.328;2022-07-09T08:22:20;3.80;;;2.70;;
57945;SDS011;46070;42.672;23.328;2022-07-09T08:24:46;3.55;;;2.70;;
57945;SDS011;46070;42.672;23.328;2022-07-09T08:27:12;3.03;;;2.72;;
57945;SDS011;46070;42.672;23.328;2022-07-09T08:29:37;3.88;;;2.50;;
57945;SDS011;46070;42.672;23.328;2022-07-09T08:32:03;3.92;;;2.80;;
57945;SDS011;46070;42.672;23.328;2022-07-09T08:34:30;3.42;;;2.47;;
57945;SDS011;46070;42.672;23.328;2022-07-09T08:36:56;2.95;;;2.42;;
57945;SDS011;46070;42.672;23.328;2022-07-09T08:39:21;6.45;;;2.53;;
57945;SDS011;46070;42.672;23.328;2022-07-09T08:41:47;11.60;;;3.33;;
57945;SDS011;46070;42.672;23.328;2022-07-09T08:44:13;3.80;;;2.45;;
57945;SDS011;46070;42.672;23.328;2022-07-09T08:46:39;5.88;;;2.72;;
57945;SDS011;46070;42.672;23.328;2022-07-09T08:49:06;3.97;;;2.33;;
57945;SDS011;46070;42.672;23.328;2022-07-09T08:51:32;3.13;;;2.58;;
57945;SDS011;46070;42.672;23.328;2022-07-09T08:54:00;4.93;;;3.05;;
57945;SDS011;46070;42.672;23.328;2022-07-09T08:56:26;3.67;;;2.35;;
57945;SDS011;46070;42.672;23.328;2022-07-09T08:58:52;5.97;;;2.80;;
57945;SDS011;46070;42.672;23.328;2022-07-09T09:01:18;7.47;;;2.85;;
57945;SDS011;46070;42.672;23.328;2022-07-09T09:03:43;3.47;;;2.80;;
57945;SDS011;46070;42.672;23.328;2022-07-09T09:06:11;2.85;;;2.55;;
57945;SDS011;46070;42.672;23.328;2022-07-09T09:08:42;2.85;;;2.55;;
57945;SDS011;46070;42.672;23.328;2022-07-09T09:11:15;4.10;;;2.75;;
57945;SDS011;46070;42.672;23.328;2022-07-09T09:13:48;4.53;;;2.95;;
57945;SDS011;46070;42.672;23.328;2022-07-09T09:16:15;4.60;;;3.53;;
57945;SDS011;46070;42.672;23.328;2022-07-09T09:18:48;4.93;;;3.17;;
57945;SDS011;46070;42.672;23.328;2022-07-09T09:21:16;7.18;;;3.22;;
57945;SDS011;46070;42.672;23.328;2022-07-09T09:23:44;6.18;;;3.97;;
57945;SDS011;46070;42.672;23.328;2022-07-09T09:26:11;4.53;;;3.28;;
57945;SDS011;46070;42.672;23.328;2022-07-09T09:28:54;4.75;;;3.20;;
57945;SDS011;46070;42.672;23.328;2022-07-09T09:33:57;4.18;;;3.17;;
57945;SDS011;46070;42.672;23.328;2022-07-09T09:36:39;6.53;;;3.47;;
57945;SDS011;46070;42.672;23.328;2022-07-09T09:39:16;7.88;;;2.90;;
57945;SDS011;46070;42.672;23.328;2022-07-09T09:44:13;4.93;;;3.30;;
57945;SDS011;46070;42.672;23.328;2022-07-09T09:46:44;3.55;;;3.20;;
57945;SDS011;46070;42.672;23.328;2022-07-09T09:49:12;5.07;;;3.10;;
57945;SDS011;46070;42.672;23.328;2022-07-09T09:54:13;4.03;;;3.35;;
57945;SDS011;46070;42.672;23.328;2022-07-09T09:56:39;6.18;;;3.25;;
57945;SDS011;46070;42.672;23.328;2022-07-09T09:59:05;4.28;;;3.83;;
57945;SDS011;46070;42.672;23.328;2022-07-09T10:01:31;4.43;;;4.03;;
57945;SDS011;46070;42.672;23.328;2022-07-09T10:03:58;8.10;;;4.78;;
57945;SDS011;46070;42.672;23.328;2022-07-09T10:06:24;4.18;;;3.75;;
57945;SDS011;46070;42.672;23.328;2022-07-09T10:08:51;4.22;;;3.50;;
57945;SDS011;46070;42.672;23.328;2022-07-09T10:11:18;5.28;;;3.22;;
57945;SDS011;46070;42.672;23.328;2022-07-09T10:13:54;4.30;;;2.95;;
57945;SDS011;46070;42.672;23.328;2022-07-09T10:19:28;3.70;;;2.72;;
57945;SDS011;46070;42.672;23.328;2022-07-09T10:21:58;4.63;;;2.80;;
57945;SDS011;46070;42.672;23.328;2022-07-09T10:24:29;5.72;;;3.50;;
57945;SDS011;46070;42.672;23.328;2022-07-09T10:27:02;5.00;;;2.78;;
57945;SDS011;46070;42.672;23.328;2022-07-09T10:29:30;3.10;;;2.80;;
57945;SDS011;46070;42.672;23.328;2022-07-09T10:31:56;3.35;;;3.05;;
57945;SDS011;46070;42.672;23.328;2022-07-09T10:37:34;4.97;;;2.78;;
57945;SDS011;46070;42.672;23.328;2022-07-09T10:40:10;4.60;;;2.78;;
57945;SDS011;46070;42.672;23.328;2022-07-09T10:42:43;4.65;;;3.15;;
57945;SDS011;46070;42.672;23.328;2022-07-09T10:47:52;12.20;;;5.40;;
57945;SDS011;46070;42.672;23.328;2022-07-09T10:50:22;10.73;;;4.63;;
57945;SDS011;46070;42.672;23.328;2022-07-09T10:52:49;3.25;;;2.75;;
57945;SDS011;46070;42.672;23.328;2022-07-09T10:55:19;4.47;;;2.78;;
57945;SDS011;46070;42.672;23.328;2022-07-09T10:57:46;3.53;;;2.38;;
57945;SDS011;46070;42.672;23.328;2022-07-09T11:00:16;5.82;;;2.17;;
57945;SDS011;46070;42.672;23.328;2022-07-09T11:05:21;3.00;;;1.85;;
57945;SDS011;46070;42.672;23.328;2022-07-09T11:07:54;2.42;;;1.98;;
57945;SDS011;46070;42.672;23.328;2022-07-09T11:10:20;3.35;;;1.63;;
57945;SDS011;46070;42.672;23.328;2022-07-09T11:12:49;3.65;;;1.65;;
57945;SDS011;46070;42.672;23.328;2022-07-09T11:15:21;4.50;;;2.10;;
57945;SDS011;46070;42.672;23.328;2022-07-09T11:17:57;2.88;;;2.22;;
57945;SDS011;46070;42.672;23.328;2022-07-09T11:20:24;1.92;;;1.63;;
57945;SDS011;46070;42.672;23.328;2022-07-09T11:22:51;4.07;;;1.90;;
57945;SDS011;46070;42.672;23.328;2022-07-09T11:25:16;2.55;;;1.85;;
57945;SDS011;46070;42.672;23.328;2022-07-09T11:27:43;3.90;;;1.98;;
57945;SDS011;46070;42.672;23.328;2022-07-09T11:30:12;2.75;;;1.98;;
57945;SDS011;46070;42.672;23.328;2022-07-09T11:32:39;7.00;;;2.20;;
57945;SDS011;46070;42.672;23.328;2022-07-09T11:35:09;3.50;;;1.52;;
57945;SDS011;46070;42.672;23.328;2022-07-09T11:37:36;3.28;;;1.50;;
57945;SDS011;46070;42.672;23.328;2022-07-09T11:40:03;2.53;;;1.67;;
57945;SDS011;46070;42.672;23.328;2022-07-09T11:42:29;2.40;;;1.45;;
57945;SDS011;46070;42.672;23.328;2022-07-09T11:44:59;2.63;;;1.38;;
57945;SDS011;46070;42.672;23.328;2022-07-09T11:47:38;2.88;;;1.50;;
57945;SDS011;46070;42.672;23.328;2022-07-09T11:50:11;3.67;;;2.10;;
57945;SDS011;46070;42.672;23.328;2022-07-09T11:52:45;2.08;;;1.55;;
57945;SDS011;46070;42.672;23.328;2022-07-09T11:55:14;2.05;;;1.63;;
57945;SDS011;46070;42.672;23.328;2022-07-09T11:57:50;3.53;;;2.28;;
57945;SDS011;46070;42.672;23.328;2022-07-09T12:00:23;3.10;;;2.17;;
57945;SDS011;46070;42.672;23.328;2022-07-09T12:02:54;7.93;;;5.30;;
57945;SDS011;46070;42.672;23.328;2022-07-09T12:05:25;26.23;;;15.40;;
57945;SDS011;46070;42.672;23.328;2022-07-09T12:07:55;6.47;;;2.78;;
57945;SDS011;46070;42.672;23.328;2022-07-09T12:10:32;15.48;;;9.70;;
57945;SDS011;46070;42.672;23.328;2022-07-09T12:13:00;17.08;;;11.75;;
57945;SDS011;46070;42.672;23.328;2022-07-09T12:15:26;11.80;;;9.02;;
57945;SDS011;46070;42.672;23.328;2022-07-09T12:17:53;12.25;;;9.15;;
57945;SDS011;46070;42.672;23.328;2022-07-09T12:20:29;9.75;;;7.13;;
57945;SDS011;46070;42.672;23.328;2022-07-09T12:22:56;22.27;;;12.25;;
57945;SDS011;46070;42.672;23.328;2022-07-09T12:25:22;21.23;;;13.75;;
57945;SDS011;46070;42.672;23.328;2022-07-09T12:27:48;11.57;;;6.82;;
57945;SDS011;46070;42.672;23.328;2022-07-09T12:30:14;5.40;;;3.72;;
57945;SDS011;46070;42.672;23.328;2022-07-09T12:32:41;2.95;;;2.35;;
57945;SDS011;46070;42.672;23.328;2022-07-09T12:35:08;1.77;;;1.60;;
57945;SDS011;46070;42.672;23.328;2022-07-09T12:37:35;2.08;;;1.55;;
57945;SDS011;46070;42.672;23.328;2022-07-09T12:40:02;1.65;;;1.52;;
57945;SDS011;46070;42.672;23.328;2022-07-09T12:42:29;1.77;;;1.45;;
57945;SDS011;46070;42.672;23.328;2022-07-09T12:44:55;2.42;;;1.70;;
57945;SDS011;46070;42.672;23.328;2022-07-09T12:47:20;10.35;;;6.93;;
57945;SDS011;46070;42.672;23.328;2022-07-09T12:49:46;8.85;;;5.07;;
57945;SDS011;46070;42.672;23.328;2022-07-09T12:52:12;3.42;;;2.70;;
57945;SDS011;46070;42.672;23.328;2022-07-09T12:54:38;3.13;;;2.72;;
57945;SDS011;46070;42.672;23.328;2022-07-09T12:57:04;13.50;;;7.70;;
57945;SDS011;46070;42.672;23.328;2022-07-09T12:59:30;2.97;;;1.90;;
57945;SDS011;46070;42.672;23.328;2022-07-09T13:01:56;6.82;;;4.30;;
57945;SDS011;46070;42.672;23.328;2022-07-09T13:04:22;16.50;;;8.40;;
57945;SDS011;46070;42.672;23.328;2022-07-09T13:06:48;7.80;;;4.05;;
57945;SDS011;46070;42.672;23.328;2022-07-09T13:09:14;3.50;;;2.05;;
57945;SDS011;46070;42.672;23.328;2022-07-09T13:11:39;2.00;;;1.75;;
57945;SDS011;46070;42.672;23.328;2022-07-09T13:14:05;1.92;;;1.73;;
57945;SDS011;46070;42.672;23.328;2022-07-09T13:16:31;1.88;;;1.65;;
57945;SDS011;46070;42.672;23.328;2022-07-09T13:18:59;6.53;;;3.53;;
57945;SDS011;46070;42.672;23.328;2022-07-09T13:21:25;2.75;;;2.00;;
57945;SDS011;46070;42.672;23.328;2022-07-09T13:23:51;2.60;;;1.70;;
57945;SDS011;46070;42.672;23.328;2022-07-09T13:26:17;2.45;;;1.77;;
57945;SDS011;46070;42.672;23.328;2022-07-09T13:28:43;2.92;;;1.98;;
57945;SDS011;46070;42.672;23.328;2022-07-09T13:31:08;1.80;;;1.38;;
57945;SDS011;46070;42.672;23.328;2022-07-09T13:33:35;1.55;;;1.40;;
57945;SDS011;46070;42.672;23.328;2022-07-09T13:36:02;4.80;;;1.90;;
57945;SDS011;46070;42.672;23.328;2022-07-09T13:38:29;2.85;;;1.73;;
57945;SDS011;46070;42.672;23.328;2022-07-09T13:40:55;2.70;;;1.65;;
57945;SDS011;46070;42.672;23.328;2022-07-09T13:43:21;1.95;;;1.60;;
57945;SDS011;46070;42.672;23.328;2022-07-09T13:45:50;3.83;;;1.40;;
57945;SDS011;46070;42.672;23.328;2022-07-09T13:48:16;2.05;;;1.67;;
57945;SDS011;46070;42.672;23.328;2022-07-09T13:50:42;4.15;;;1.98;;
57945;SDS011;46070;42.672;23.328;2022-07-09T13:53:08;3.22;;;1.70;;
57945;SDS011;46070;42.672;23.328;2022-07-09T13:55:34;2.78;;;1.77;;
57945;SDS011;46070;42.672;23.328;2022-07-09T13:58:00;7.20;;;2.78;;
57945;SDS011;46070;42.672;23.328;2022-07-09T14:00:26;3.67;;;2.40;;
57945;SDS011;46070;42.672;23.328;2022-07-09T14:02:52;5.35;;;1.98;;
57945;SDS011;46070;42.672;23.328;2022-07-09T14:05:18;2.15;;;1.70;;
57945;SDS011;46070;42.672;23.328;2022-07-09T14:07:45;3.72;;;1.85;;
57945;SDS011;46070;42.672;23.328;2022-07-09T14:10:11;2.45;;;1.95;;
57945;SDS011;46070;42.672;23.328;2022-07-09T14:12:37;2.28;;;1.60;;
57945;SDS011;46070;42.672;23.328;2022-07-09T14:15:03;2.65;;;1.92;;
57945;SDS011;46070;42.672;23.328;2022-07-09T14:17:29;5.95;;;3.53;;
57945;SDS011;46070;42.672;23.328;2022-07-09T14:19:55;6.70;;;2.35;;
57945;SDS011;46070;42.672;23.328;2022-07-09T14:22:21;3.65;;;2.47;;
57945;SDS011;46070;42.672;23.328;2022-07-09T14:24:46;7.05;;;2.53;;
57945;SDS011;46070;42.672;23.328;2022-07-09T14:27:12;3.03;;;2.20;;
57945;SDS011;46070;42.672;23.328;2022-07-09T14:29:38;3.22;;;2.03;;
57945;SDS011;46070;42.672;23.328;2022-07-09T14:32:04;2.33;;;1.80;;
57945;SDS011;46070;42.672;23.328;2022-07-09T14:34:32;6.55;;;3.97;;
57945;SDS011;46070;42.672;23.328;2022-07-09T14:36:58;4.85;;;3.05;;
57945;SDS011;46070;42.672;23.328;2022-07-09T14:39:24;3.38;;;2.30;;
57945;SDS011;46070;42.672;23.328;2022-07-09T14:41:50;4.72;;;1.85;;
57945;SDS011;46070;42.672;23.328;2022-07-09T14:44:16;6.13;;;2.58;;
57945;SDS011;46070;42.672;23.328;2022-07-09T14:46:42;3.65;;;3.08;;
57945;SDS011;46070;42.672;23.328;2022-07-09T14:49:08;2.17;;;1.63;;